createdAt,value
2019-03-17T00:01:57.714Z,0.93
2019-03-17T00:04:31.423Z,1.07
2019-03-17T00:06:53.881Z,1.27
2019-03-17T00:09:22.931Z,0.98
2019-03-17T00:11:52.090Z,1.15
2019-03-17T00:14:21.139Z,1.20
2019-03-17T00:16:49.965Z,1.07
2019-03-17T00:19:38.067Z,1.47
2019-03-17T00:22:06.687Z,1.32
2019-03-17T00:24:35.275Z,1.20
2019-03-17T00:27:04.077Z,1.05
2019-03-17T00:29:32.914Z,1.15
2019-03-17T00:32:01.531Z,1.00
2019-03-17T00:34:30.370Z,1.12
2019-03-17T00:36:59.382Z,1.12
2019-03-17T00:39:28.006Z,0.93
2019-03-17T00:41:56.854Z,1.00
2019-03-17T00:44:25.490Z,1.25
2019-03-17T00:46:54.307Z,1.25
2019-03-17T00:49:23.352Z,1.17
2019-03-17T00:51:51.938Z,1.10
2019-03-17T00:54:21.051Z,0.90
2019-03-17T00:56:49.854Z,1.37
2019-03-17T00:59:18.507Z,1.30
2019-03-17T01:01:47.099Z,1.17
2019-03-17T01:04:15.687Z,0.95
2019-03-17T01:06:44.275Z,1.10
2019-03-17T01:09:15.935Z,1.20
2019-03-17T01:11:44.510Z,1.10
2019-03-17T01:14:13.364Z,1.00
2019-03-17T01:16:42.299Z,1.15
2019-03-17T01:19:11.111Z,1.07
2019-03-17T01:21:39.890Z,1.00
2019-03-17T01:24:10.354Z,1.05
2019-03-17T01:26:39.419Z,0.98
2019-03-17T01:29:08.214Z,1.22
2019-03-17T01:31:37.015Z,1.07
2019-03-17T01:34:05.873Z,1.00
2019-03-17T01:36:34.733Z,0.90
2019-03-17T01:39:03.666Z,0.70
2019-03-17T01:41:32.249Z,0.88
2019-03-17T01:44:00.910Z,0.55
2019-03-17T01:46:29.503Z,1.05
2019-03-17T01:48:58.346Z,0.82
2019-03-17T01:51:27.014Z,0.90
2019-03-17T01:53:55.546Z,0.85
2019-03-17T01:56:24.374Z,0.85
2019-03-17T01:58:52.918Z,0.75
2019-03-17T02:01:21.751Z,0.90
2019-03-17T02:03:50.363Z,1.20
2019-03-17T02:06:19.162Z,0.80
2019-03-17T02:08:48.127Z,0.75
2019-03-17T02:11:16.765Z,0.75
2019-03-17T02:13:46.140Z,0.75
2019-03-17T02:16:14.745Z,0.85
2019-03-17T02:18:43.349Z,1.07
2019-03-17T02:21:11.899Z,0.82
2019-03-17T02:23:40.515Z,0.90
2019-03-17T02:26:09.082Z,0.80
2019-03-17T02:28:37.928Z,0.80
2019-03-17T02:31:06.941Z,0.70
2019-03-17T02:33:36.369Z,0.70
2019-03-17T02:36:05.182Z,0.80
2019-03-17T02:38:33.759Z,0.80
2019-03-17T02:41:02.328Z,0.85
2019-03-17T02:43:31.263Z,0.80
2019-03-17T02:46:02.761Z,0.78
2019-03-17T02:48:30.112Z,0.80
2019-03-17T02:50:59.163Z,1.00
2019-03-17T02:53:27.684Z,0.98
2019-03-17T02:55:56.491Z,0.90
2019-03-17T02:58:24.994Z,0.70
2019-03-17T03:00:53.530Z,0.80
2019-03-17T03:03:22.136Z,0.98
2019-03-17T03:05:55.387Z,0.70
2019-03-17T03:08:21.056Z,0.90
2019-03-17T03:10:49.830Z,0.80
2019-03-17T03:13:18.647Z,0.95
2019-03-17T03:15:47.187Z,0.90
2019-03-17T03:18:15.763Z,1.17
2019-03-17T03:20:44.596Z,0.95
2019-03-17T03:23:13.136Z,0.90
2019-03-17T03:25:42.307Z,1.10
2019-03-17T03:28:11.528Z,1.32
2019-03-17T03:30:40.596Z,0.88
2019-03-17T03:33:09.149Z,1.05
2019-03-17T03:35:37.714Z,1.07
2019-03-17T03:38:06.616Z,1.05
2019-03-17T03:40:35.182Z,1.17
2019-03-17T03:43:03.987Z,0.70
2019-03-17T03:45:32.787Z,1.00
2019-03-17T03:48:01.854Z,0.80
2019-03-17T03:50:30.452Z,0.90
2019-03-17T03:52:59.015Z,1.02
2019-03-17T03:55:27.704Z,0.93
2019-03-17T03:57:56.740Z,1.35
2019-03-17T04:00:25.569Z,0.80
2019-03-17T04:02:54.168Z,0.98
2019-03-17T04:05:22.759Z,0.95
2019-03-17T04:07:51.348Z,1.17
2019-03-17T04:10:20.239Z,1.10
2019-03-17T04:12:48.827Z,0.98
2019-03-17T04:15:17.410Z,1.47
2019-03-17T04:17:46.005Z,0.88
2019-03-17T04:20:14.580Z,0.90
2019-03-17T04:22:43.307Z,1.00
2019-03-17T04:25:15.984Z,1.32
2019-03-17T04:27:44.512Z,0.98
2019-03-17T04:30:13.112Z,1.42
2019-03-17T04:32:41.699Z,0.80
2019-03-17T04:35:10.268Z,1.12
2019-03-17T04:37:38.861Z,1.02
2019-03-17T04:40:07.479Z,1.22
2019-03-17T04:42:36.018Z,1.10
2019-03-17T04:45:04.715Z,1.30
2019-03-17T04:47:33.295Z,1.37
2019-03-17T04:50:02.344Z,1.05
2019-03-17T04:52:30.871Z,1.40
2019-03-17T04:54:59.674Z,1.00
2019-03-17T04:57:28.247Z,1.00
2019-03-17T04:59:57.279Z,1.20
2019-03-17T05:02:25.825Z,1.25
2019-03-17T05:04:54.410Z,1.50
2019-03-17T05:07:23.222Z,1.10
2019-03-17T05:09:52.011Z,1.10
2019-03-17T05:12:20.807Z,1.00
2019-03-17T05:14:49.343Z,1.17
2019-03-17T05:17:18.178Z,1.02
2019-03-17T05:19:46.714Z,1.15
2019-03-17T05:22:15.215Z,0.85
2019-03-17T05:24:43.786Z,1.30
2019-03-17T05:27:12.374Z,0.95
2019-03-17T05:29:41.499Z,1.17
2019-03-17T05:32:10.062Z,1.20
2019-03-17T05:34:39.204Z,1.15
2019-03-17T05:37:07.985Z,1.45
2019-03-17T05:39:36.523Z,1.22
2019-03-17T05:42:05.116Z,0.95
2019-03-17T05:44:33.684Z,1.20
2019-03-17T05:47:02.491Z,1.40
2019-03-17T05:49:31.067Z,1.10
2019-03-17T05:51:59.654Z,1.20
2019-03-17T05:54:28.707Z,1.55
2019-03-17T05:56:57.450Z,1.25
2019-03-17T05:59:26.025Z,1.15
2019-03-17T06:01:54.593Z,1.12
2019-03-17T06:04:23.191Z,1.42
2019-03-17T06:06:51.756Z,1.52
2019-03-17T06:09:20.350Z,1.62
2019-03-17T06:11:49.221Z,1.70
2019-03-17T06:14:19.111Z,1.35
2019-03-17T06:16:47.866Z,1.27
2019-03-17T06:19:17.446Z,1.17
2019-03-17T06:21:46.670Z,1.65
2019-03-17T06:24:15.237Z,1.12
2019-03-17T06:26:43.806Z,1.20
2019-03-17T06:29:12.724Z,1.25
2019-03-17T06:31:41.283Z,1.60
2019-03-17T06:34:10.186Z,1.30
2019-03-17T06:36:39.061Z,1.05
2019-03-17T06:39:08.101Z,1.65
2019-03-17T06:41:36.885Z,1.60
2019-03-17T06:44:05.470Z,1.70
2019-03-17T06:46:34.083Z,1.62
2019-03-17T06:49:02.607Z,1.60
2019-03-17T06:51:31.677Z,1.42
2019-03-17T06:54:00.915Z,1.67
2019-03-17T06:56:29.475Z,1.30
2019-03-17T06:58:58.317Z,1.70
2019-03-17T07:01:26.858Z,1.85
2019-03-17T07:03:55.975Z,1.60
2019-03-17T07:06:25.054Z,2.20
2019-03-17T07:08:53.862Z,1.30
2019-03-17T07:11:22.935Z,1.20
2019-03-17T07:13:52.094Z,1.50
2019-03-17T07:16:20.902Z,1.20
2019-03-17T07:18:50.274Z,1.32
2019-03-17T07:21:19.281Z,1.40
2019-03-17T07:23:48.066Z,1.57
2019-03-17T07:26:17.063Z,1.30
2019-03-17T07:28:45.578Z,1.42
2019-03-17T07:31:14.395Z,1.60
2019-03-17T07:33:42.956Z,1.62
2019-03-17T07:36:11.543Z,1.70
2019-03-17T07:38:40.114Z,1.70
2019-03-17T07:41:09.014Z,1.85
2019-03-17T07:43:37.602Z,1.75
2019-03-17T07:46:06.182Z,1.45
2019-03-17T07:48:34.763Z,1.67
2019-03-17T07:51:03.366Z,1.60
2019-03-17T07:53:32.203Z,1.65
2019-03-17T07:56:00.954Z,2.02
2019-03-17T07:58:29.773Z,1.60
2019-03-17T08:01:01.122Z,2.05
2019-03-17T08:03:29.059Z,1.85
2019-03-17T08:05:57.624Z,1.80
2019-03-17T08:08:26.521Z,2.40
2019-03-17T08:10:55.106Z,1.67
2019-03-17T08:13:24.272Z,2.00
2019-03-17T08:15:53.126Z,1.90
2019-03-17T08:18:21.659Z,1.85
2019-03-17T08:20:50.791Z,1.70
2019-03-17T08:23:19.331Z,2.05
2019-03-17T08:25:47.927Z,1.60
2019-03-17T08:28:16.963Z,1.87
2019-03-17T08:30:53.047Z,1.92
2019-03-17T08:33:16.226Z,1.82
2019-03-17T08:35:44.826Z,2.33
2019-03-17T08:38:21.850Z,2.10
2019-03-17T08:40:43.935Z,2.17
2019-03-17T08:43:13.058Z,2.22
2019-03-17T08:45:41.630Z,1.80
2019-03-17T08:48:10.415Z,2.15
2019-03-17T08:50:39.355Z,2.02
2019-03-17T08:53:08.100Z,1.87
2019-03-17T08:55:36.970Z,2.15
2019-03-17T08:58:05.551Z,1.70
2019-03-17T09:00:34.178Z,2.30
2019-03-17T09:03:02.960Z,2.33
2019-03-17T09:05:31.755Z,2.02
2019-03-17T09:08:00.298Z,1.90
2019-03-17T09:10:28.886Z,1.67
2019-03-17T09:12:57.464Z,1.80
2019-03-17T09:15:26.837Z,2.83
2019-03-17T09:17:56.222Z,2.22
2019-03-17T09:20:24.771Z,1.87
2019-03-17T09:22:53.582Z,1.70
2019-03-17T09:25:23.402Z,2.42
2019-03-17T09:27:51.968Z,2.00
2019-03-17T09:30:20.764Z,1.67
2019-03-17T09:32:49.818Z,1.70
2019-03-17T09:35:18.779Z,1.72
2019-03-17T09:37:47.309Z,2.00
2019-03-17T09:40:16.113Z,1.57
2019-03-17T09:42:44.915Z,1.72
2019-03-17T09:45:13.466Z,2.72
2019-03-17T09:47:42.063Z,2.17
2019-03-17T09:50:10.898Z,1.92
2019-03-17T09:52:39.654Z,2.02
2019-03-17T09:55:08.240Z,2.17
2019-03-17T09:57:37.047Z,2.55
2019-03-17T10:00:06.207Z,1.87
2019-03-17T10:02:35.066Z,1.75
2019-03-17T10:05:03.690Z,1.70
2019-03-17T10:07:32.506Z,1.80
2019-03-17T10:10:01.275Z,2.52
2019-03-17T10:12:29.828Z,1.77
2019-03-17T10:14:58.491Z,2.27
2019-03-17T10:17:27.094Z,2.15
2019-03-17T10:19:55.686Z,1.70
2019-03-17T10:22:24.206Z,1.47
2019-03-17T10:24:53.256Z,2.10
2019-03-17T10:27:22.395Z,2.40
2019-03-17T10:29:52.194Z,1.72
2019-03-17T10:32:20.986Z,1.72
2019-03-17T10:34:50.082Z,1.95
2019-03-17T10:37:18.638Z,2.15
2019-03-17T10:39:47.225Z,2.30
2019-03-17T10:42:16.031Z,2.08
2019-03-17T10:44:44.830Z,2.15
2019-03-17T10:47:13.629Z,2.20
2019-03-17T10:49:43.219Z,2.05
2019-03-17T10:52:12.015Z,2.33
2019-03-17T10:54:40.579Z,1.80
2019-03-17T10:57:09.154Z,2.80
2019-03-17T10:59:38.046Z,2.35
2019-03-17T11:02:06.855Z,1.87
2019-03-17T11:04:35.427Z,2.05
2019-03-17T11:07:04.226Z,2.02
2019-03-17T11:09:32.799Z,1.87
2019-03-17T11:12:01.382Z,1.30
2019-03-17T11:14:30.483Z,1.47
2019-03-17T11:16:59.275Z,1.30
2019-03-17T11:19:28.074Z,1.12
2019-03-17T11:21:56.930Z,0.93
2019-03-17T11:24:25.754Z,0.78
2019-03-17T11:26:55.774Z,0.90
2019-03-17T11:29:24.440Z,0.68
2019-03-17T11:31:53.310Z,0.90
2019-03-17T11:34:22.511Z,0.50
2019-03-17T11:36:51.676Z,0.70
2019-03-17T11:39:20.200Z,0.90
2019-03-17T11:41:49.114Z,0.60
2019-03-17T11:44:17.679Z,0.30
2019-03-17T11:46:46.260Z,0.42
2019-03-17T11:49:14.844Z,0.20
2019-03-17T11:51:43.454Z,0.30
2019-03-17T11:54:12.002Z,0.20
2019-03-17T11:56:40.619Z,0.30
2019-03-17T11:59:09.470Z,0.20
2019-03-17T12:01:38.318Z,0.30
2019-03-17T12:04:06.851Z,0.25
2019-03-17T12:06:35.795Z,0.40
2019-03-17T12:09:06.711Z,0.20
2019-03-17T12:11:35.528Z,0.20
2019-03-17T12:14:04.115Z,0.13
2019-03-17T12:16:32.691Z,0.20
2019-03-17T12:19:01.458Z,0.10
2019-03-17T12:21:29.985Z,0.30
2019-03-17T12:23:58.774Z,0.25
2019-03-17T12:26:27.590Z,0.10
2019-03-17T12:28:56.247Z,0.55
2019-03-17T12:31:25.271Z,0.30
2019-03-17T12:33:54.227Z,0.20
2019-03-17T12:36:22.767Z,0.23
2019-03-17T12:38:51.354Z,0.30
2019-03-17T12:41:19.950Z,0.20
2019-03-17T12:43:48.762Z,0.30
2019-03-17T12:46:17.570Z,0.20
2019-03-17T12:48:46.594Z,0.28
2019-03-17T12:51:15.663Z,0.30
2019-03-17T12:53:44.680Z,0.30
2019-03-17T12:56:14.115Z,0.53
2019-03-17T12:58:43.147Z,0.20
2019-03-17T13:01:11.671Z,0.40
2019-03-17T13:03:40.272Z,0.30
2019-03-17T13:06:09.066Z,0.30
2019-03-17T13:08:37.637Z,0.25
2019-03-17T13:11:06.440Z,0.40
2019-03-17T13:13:35.028Z,0.40
2019-03-17T13:16:03.587Z,0.28
2019-03-17T13:18:32.411Z,0.30
2019-03-17T13:21:01.147Z,0.55
2019-03-17T13:23:29.750Z,0.20
2019-03-17T13:25:58.823Z,0.20
2019-03-17T13:28:27.329Z,0.30
2019-03-17T13:30:56.459Z,0.30
2019-03-17T13:33:25.006Z,0.40
2019-03-17T13:35:54.078Z,0.28
2019-03-17T13:38:22.587Z,0.40
2019-03-17T13:40:51.410Z,0.30
2019-03-17T13:43:19.963Z,0.30
2019-03-17T13:45:48.772Z,0.47
2019-03-17T13:48:17.563Z,0.40
2019-03-17T13:50:46.374Z,0.30
2019-03-17T13:53:14.905Z,0.40
2019-03-17T13:55:43.494Z,0.60
2019-03-17T13:58:12.094Z,0.35
2019-03-17T14:00:40.658Z,0.50
2019-03-17T14:03:09.247Z,0.55
2019-03-17T14:05:37.833Z,0.30
2019-03-17T14:08:06.949Z,0.50
2019-03-17T14:10:40.844Z,0.37
2019-03-17T14:13:06.286Z,0.28
2019-03-17T14:15:35.058Z,0.40
2019-03-17T14:18:03.608Z,0.33
2019-03-17T14:20:32.199Z,0.50
2019-03-17T14:23:01.098Z,0.30
2019-03-17T14:25:31.173Z,0.42
2019-03-17T14:28:00.100Z,0.40
2019-03-17T14:30:28.928Z,0.42
2019-03-17T14:32:57.738Z,0.70
2019-03-17T14:35:26.507Z,0.78
2019-03-17T14:37:55.507Z,0.40
2019-03-17T14:40:24.319Z,0.50
2019-03-17T14:42:55.518Z,0.60
2019-03-17T14:45:23.379Z,0.50
2019-03-17T14:47:51.939Z,0.75
2019-03-17T14:50:20.574Z,0.53
2019-03-17T14:52:49.125Z,0.47
2019-03-17T14:55:17.693Z,0.50
2019-03-17T14:57:46.966Z,0.40
2019-03-17T15:00:16.742Z,0.30
2019-03-17T15:02:45.650Z,0.40
2019-03-17T15:05:14.183Z,0.37
2019-03-17T15:07:43.016Z,0.72
2019-03-17T15:10:13.566Z,0.88
2019-03-17T15:12:42.099Z,0.50
2019-03-17T15:15:13.231Z,0.62
2019-03-17T15:17:41.839Z,0.42
2019-03-17T15:20:13.596Z,0.40
2019-03-17T15:22:42.098Z,0.57
2019-03-17T15:25:10.895Z,0.70
2019-03-17T15:27:41.662Z,0.50
2019-03-17T15:30:13.762Z,0.75
2019-03-17T15:32:42.557Z,1.00
2019-03-17T15:35:11.514Z,1.00
2019-03-17T15:37:40.587Z,1.00
2019-03-17T15:40:09.906Z,0.57
2019-03-17T15:42:38.526Z,0.57
2019-03-17T15:45:08.940Z,0.40
2019-03-17T15:47:37.530Z,0.65
2019-03-17T15:50:06.770Z,0.37
2019-03-17T15:52:35.791Z,0.33
2019-03-17T15:55:05.867Z,0.60
2019-03-17T15:57:34.438Z,0.42
2019-03-17T16:00:03.379Z,0.60
2019-03-17T16:02:31.999Z,0.30
2019-03-17T16:05:00.797Z,0.30
2019-03-17T16:07:41.392Z,0.37
2019-03-17T16:09:59.691Z,0.20
2019-03-17T16:12:28.589Z,0.30
2019-03-17T16:14:57.398Z,0.30
2019-03-17T16:17:26.187Z,0.30
2019-03-17T16:19:54.991Z,0.30
2019-03-17T16:22:23.507Z,0.40
2019-03-17T16:24:52.124Z,0.40
2019-03-17T16:27:20.706Z,0.35
2019-03-17T16:29:49.283Z,0.50
2019-03-17T16:32:18.110Z,0.30
2019-03-17T16:34:47.174Z,0.33
2019-03-17T16:37:15.965Z,0.60
2019-03-17T16:39:44.545Z,0.50
2019-03-17T16:42:13.358Z,0.30
2019-03-17T16:44:42.161Z,0.30
2019-03-17T16:47:10.699Z,0.37
2019-03-17T16:49:39.290Z,0.30
2019-03-17T16:52:08.134Z,0.20
2019-03-17T16:54:36.654Z,0.20
2019-03-17T16:57:05.240Z,0.37
2019-03-17T16:59:33.823Z,0.42
2019-03-17T17:02:03.174Z,0.55
2019-03-17T17:04:31.935Z,0.47
2019-03-17T17:07:00.528Z,0.47
2019-03-17T17:09:29.358Z,0.50
2019-03-17T17:11:58.579Z,0.50
2019-03-17T17:14:27.638Z,0.50
2019-03-17T17:16:56.158Z,0.75
2019-03-17T17:19:25.079Z,0.65
2019-03-17T17:21:53.855Z,0.30
2019-03-17T17:24:22.683Z,0.33
2019-03-17T17:26:51.734Z,0.30
2019-03-17T17:29:20.422Z,0.35
2019-03-17T17:31:49.204Z,0.30
2019-03-17T17:34:17.798Z,0.23
2019-03-17T17:36:46.921Z,0.47
2019-03-17T17:39:15.715Z,0.53
2019-03-17T17:41:44.255Z,0.50
2019-03-17T17:44:13.085Z,0.50
2019-03-17T17:46:41.890Z,0.45
2019-03-17T17:49:10.688Z,0.68
2019-03-17T17:51:39.459Z,0.40
2019-03-17T17:54:08.264Z,0.45
2019-03-17T17:56:37.275Z,0.70
2019-03-17T17:59:05.887Z,0.70
2019-03-17T18:01:34.694Z,0.30
2019-03-17T18:04:03.247Z,0.40
2019-03-17T18:06:32.063Z,0.50
2019-03-17T18:09:00.889Z,0.35
2019-03-17T18:11:29.662Z,0.57
2019-03-17T18:13:58.210Z,0.42
2019-03-17T18:16:26.794Z,0.60
2019-03-17T18:18:55.367Z,0.93
2019-03-17T18:21:23.982Z,0.45
2019-03-17T18:23:52.509Z,0.42
2019-03-17T18:26:21.296Z,0.80
2019-03-17T18:28:50.524Z,0.40
2019-03-17T18:31:19.690Z,0.50
2019-03-17T18:33:48.243Z,0.50
2019-03-17T18:36:16.816Z,0.55
2019-03-17T18:38:45.706Z,0.70
2019-03-17T18:41:14.583Z,0.50
2019-03-17T18:43:43.623Z,0.40
2019-03-17T18:46:12.155Z,0.50
2019-03-17T18:48:40.962Z,0.70
2019-03-17T18:51:09.803Z,0.47
2019-03-17T18:53:38.528Z,0.40
2019-03-17T18:56:07.598Z,0.40
2019-03-17T18:58:36.090Z,0.50
2019-03-17T19:01:05.131Z,0.50
2019-03-17T19:03:34.018Z,0.53
2019-03-17T19:06:02.783Z,0.40
2019-03-17T19:08:31.360Z,0.40
2019-03-17T19:10:59.933Z,0.50
2019-03-17T19:13:29.074Z,0.72
2019-03-17T19:15:57.847Z,0.40
2019-03-17T19:18:26.630Z,0.40
2019-03-17T19:20:55.191Z,0.40
2019-03-17T19:23:24.318Z,0.40
2019-03-17T19:25:52.819Z,0.50
2019-03-17T19:28:21.363Z,0.60
2019-03-17T19:30:50.797Z,0.40
2019-03-17T19:33:19.346Z,0.50
2019-03-17T19:35:47.943Z,0.42
2019-03-17T19:38:16.534Z,0.60
2019-03-17T19:40:45.683Z,0.60
2019-03-17T19:43:14.290Z,0.40
2019-03-17T19:45:43.106Z,0.40
2019-03-17T19:48:11.902Z,0.70
2019-03-17T19:50:40.683Z,0.50
2019-03-17T19:53:09.723Z,0.50
2019-03-17T19:55:38.942Z,0.50
2019-03-17T19:58:07.778Z,0.50
2019-03-17T20:00:36.839Z,0.42
2019-03-17T20:03:05.423Z,0.50
2019-03-17T20:05:33.998Z,0.60
2019-03-17T20:08:02.846Z,0.65
2019-03-17T20:10:31.854Z,0.80
2019-03-17T20:13:10.854Z,0.85
2019-03-17T20:15:30.691Z,0.85
2019-03-17T20:17:59.282Z,1.00
2019-03-17T20:20:28.344Z,1.10
2019-03-17T20:22:56.858Z,0.80
2019-03-17T20:25:25.463Z,1.20
2019-03-17T20:27:54.028Z,1.17
2019-03-17T20:30:22.606Z,0.70
2019-03-17T20:32:51.222Z,0.93
2019-03-17T20:35:19.768Z,0.90
2019-03-17T20:37:48.368Z,1.00
2019-03-17T20:40:16.949Z,1.70
2019-03-17T20:42:45.743Z,0.78
2019-03-17T20:45:14.329Z,1.20
2019-03-17T20:47:43.194Z,0.50
2019-03-17T20:50:11.847Z,0.60
2019-03-17T20:52:40.394Z,0.40
2019-03-17T20:55:09.175Z,0.20
2019-03-17T20:57:38.266Z,0.45
2019-03-17T21:00:07.771Z,0.30
2019-03-17T21:02:36.346Z,0.47
2019-03-17T21:05:05.810Z,0.30
2019-03-17T21:07:34.331Z,0.40
2019-03-17T21:10:03.317Z,0.60
2019-03-17T21:12:31.919Z,0.42
2019-03-17T21:15:00.756Z,0.40
2019-03-17T21:17:29.293Z,0.42
2019-03-17T21:19:57.875Z,0.30
2019-03-17T21:22:26.450Z,0.47
2019-03-17T21:24:55.282Z,0.40
2019-03-17T21:27:24.043Z,0.30
2019-03-17T21:29:52.538Z,0.40
2019-03-17T21:32:21.094Z,0.40
2019-03-17T21:34:50.226Z,0.30
2019-03-17T21:37:18.774Z,0.47
2019-03-17T21:39:47.354Z,0.23
2019-03-17T21:42:15.931Z,0.20
2019-03-17T21:44:44.538Z,0.40
2019-03-17T21:47:13.110Z,0.10
2019-03-17T21:49:42.014Z,0.20
2019-03-17T21:52:10.598Z,0.42
2019-03-17T21:54:39.694Z,0.40
2019-03-17T21:57:08.259Z,0.95
2019-03-17T21:59:37.089Z,1.40
2019-03-17T22:02:12.954Z,0.55
2019-03-17T22:04:36.366Z,0.70
2019-03-17T22:07:05.078Z,0.93
2019-03-17T22:09:34.235Z,0.62
2019-03-17T22:12:03.086Z,0.72
2019-03-17T22:14:31.632Z,0.50
2019-03-17T22:17:00.443Z,0.40
2019-03-17T22:19:29.282Z,0.30
2019-03-17T22:21:57.827Z,0.30
2019-03-17T22:24:26.600Z,0.20
2019-03-17T22:26:55.115Z,0.20
2019-03-17T22:29:24.103Z,0.20
2019-03-17T22:31:52.651Z,0.20
2019-03-17T22:34:23.041Z,0.20
2019-03-17T22:36:51.656Z,0.23
2019-03-17T22:39:20.226Z,0.20
2019-03-17T22:41:48.818Z,0.20
2019-03-17T22:44:24.395Z,0.20
2019-03-17T22:46:48.006Z,0.20
2019-03-17T22:49:16.663Z,0.30
2019-03-17T22:51:45.223Z,0.20
2019-03-17T22:54:14.019Z,0.13
2019-03-17T22:56:43.092Z,0.20
2019-03-17T22:59:12.123Z,0.10
2019-03-17T23:01:40.690Z,0.10
2019-03-17T23:04:09.240Z,0.30
2019-03-17T23:06:37.835Z,0.13
2019-03-17T23:09:07.431Z,0.15
2019-03-17T23:11:36.031Z,0.23
2019-03-17T23:14:04.603Z,0.23
2019-03-17T23:16:33.182Z,0.20
2019-03-17T23:19:01.784Z,0.10
2019-03-17T23:21:30.366Z,0.20
2019-03-17T23:23:59.183Z,0.30
2019-03-17T23:26:28.251Z,0.33
2019-03-17T23:28:56.829Z,0.20
2019-03-17T23:31:25.402Z,0.20
2019-03-17T23:33:54.246Z,0.40
2019-03-17T23:36:22.774Z,0.30
2019-03-17T23:38:51.594Z,0.70
2019-03-17T23:41:20.158Z,0.70
2019-03-17T23:43:48.742Z,1.22
2019-03-17T23:46:17.319Z,0.90
2019-03-17T23:48:46.146Z,0.90
2019-03-17T23:51:14.938Z,0.72
2019-03-17T23:53:43.485Z,0.70
2019-03-17T23:56:12.067Z,0.80
2019-03-17T23:58:40.966Z,0.72
